createdAt,value
2018-04-10T00:00:13.548Z,0.00
2018-04-10T00:01:13.515Z,0.00
2018-04-10T00:02:13.485Z,0.00
2018-04-10T00:03:13.467Z,0.00
2018-04-10T00:04:13.456Z,0.00
2018-04-10T00:05:13.437Z,0.00
2018-04-10T00:06:13.427Z,0.00
2018-04-10T00:07:13.416Z,0.00
2018-04-10T00:08:13.408Z,0.00
2018-04-10T00:09:13.382Z,0.00
2018-04-10T00:10:13.380Z,0.00
2018-04-10T00:11:13.349Z,0.00
2018-04-10T00:12:13.333Z,0.00
2018-04-10T00:13:13.317Z,0.00
2018-04-10T00:14:13.327Z,0.00
2018-04-10T00:15:13.296Z,0.00
2018-04-10T00:16:13.274Z,0.00
2018-04-10T00:17:13.262Z,0.00
2018-04-10T00:18:13.246Z,0.00
2018-04-10T00:19:13.231Z,0.00
2018-04-10T00:20:13.303Z,0.00
2018-04-10T00:21:13.202Z,0.00
2018-04-10T00:22:13.190Z,0.00
2018-04-10T00:23:13.177Z,0.00
2018-04-10T00:24:13.156Z,0.00
2018-04-10T00:25:13.141Z,0.00
2018-04-10T00:26:13.126Z,0.00
2018-04-10T00:27:13.111Z,0.00
2018-04-10T00:28:13.182Z,0.00
2018-04-10T00:29:13.082Z,0.00
2018-04-10T00:30:13.071Z,0.00
2018-04-10T00:31:13.052Z,0.00
2018-04-10T00:32:13.041Z,0.00
2018-04-10T00:33:13.029Z,0.00
2018-04-10T00:34:13.012Z,0.00
2018-04-10T00:35:13.004Z,0.00
2018-04-10T00:36:12.986Z,0.00
2018-04-10T00:37:12.964Z,0.00
2018-04-10T00:38:12.951Z,0.00
2018-04-10T00:39:12.933Z,0.00
2018-04-10T00:40:12.920Z,0.00
2018-04-10T00:41:12.906Z,0.00
2018-04-10T00:42:12.893Z,0.00
2018-04-10T00:43:12.876Z,0.00
2018-04-10T00:44:12.876Z,0.00
2018-04-10T00:45:12.848Z,0.00
2018-04-10T00:46:12.838Z,0.00
2018-04-10T00:47:12.823Z,0.00
2018-04-10T00:48:12.808Z,0.00
2018-04-10T00:49:12.792Z,0.00
2018-04-10T00:50:12.777Z,0.00
2018-04-10T00:51:12.761Z,0.00
2018-04-10T00:52:12.747Z,0.00
2018-04-10T00:53:12.732Z,0.00
2018-04-10T00:54:12.733Z,0.00
2018-04-10T00:55:12.702Z,0.00
2018-04-10T00:56:12.689Z,0.00
2018-04-10T00:57:12.677Z,0.00
2018-04-10T00:58:12.668Z,0.00
2018-04-10T00:59:12.645Z,0.00
2018-04-10T01:00:12.704Z,0.00
2018-04-10T01:01:12.615Z,0.00
2018-04-10T01:02:12.601Z,0.00
2018-04-10T01:03:12.590Z,0.00
2018-04-10T01:04:12.577Z,0.00
2018-04-10T01:05:12.558Z,0.00
2018-04-10T01:06:12.546Z,0.00
2018-04-10T01:07:12.536Z,0.00
2018-04-10T01:08:12.515Z,0.00
2018-04-10T01:09:12.500Z,0.00
2018-04-10T01:10:12.484Z,0.00
2018-04-10T01:11:12.470Z,0.00
2018-04-10T01:12:12.457Z,0.00
2018-04-10T01:13:12.528Z,0.00
2018-04-10T01:14:12.430Z,0.00
2018-04-10T01:15:12.414Z,0.00
2018-04-10T01:16:12.407Z,0.00
2018-04-10T01:17:12.386Z,0.00
2018-04-10T01:18:12.380Z,0.00
2018-04-10T01:19:12.354Z,0.00
2018-04-10T01:20:12.341Z,0.00
2018-04-10T01:21:12.332Z,0.00
2018-04-10T01:22:12.313Z,0.00
2018-04-10T01:23:12.298Z,0.00
2018-04-10T01:24:12.283Z,0.00
2018-04-10T01:25:12.269Z,0.00
2018-04-10T01:26:12.264Z,0.00
2018-04-10T01:27:12.239Z,0.00
2018-04-10T01:28:12.230Z,0.00
2018-04-10T01:29:12.208Z,0.00
2018-04-10T01:30:12.195Z,0.00
2018-04-10T01:31:12.183Z,0.00
2018-04-10T01:32:12.166Z,0.00
2018-04-10T01:33:12.153Z,0.00
2018-04-10T01:34:12.142Z,0.00
2018-04-10T01:35:12.122Z,0.00
2018-04-10T01:36:12.108Z,0.00
2018-04-10T01:37:12.096Z,0.00
2018-04-10T01:38:12.087Z,0.00
2018-04-10T01:39:12.073Z,0.00
2018-04-10T01:40:12.069Z,0.00
2018-04-10T01:41:12.034Z,0.00
2018-04-10T01:42:12.023Z,0.00
2018-04-10T01:43:12.062Z,0.00
2018-04-10T01:44:11.992Z,0.00
2018-04-10T01:45:11.978Z,0.00
2018-04-10T01:46:11.961Z,0.00
2018-04-10T01:47:11.946Z,0.00
2018-04-10T01:48:11.931Z,0.00
2018-04-10T01:49:11.917Z,0.00
2018-04-10T01:50:11.903Z,0.00
2018-04-10T01:51:11.894Z,0.00
2018-04-10T01:52:11.875Z,0.00
2018-04-10T01:53:11.856Z,0.00
2018-04-10T01:54:11.846Z,0.00
2018-04-10T01:55:11.826Z,0.00
2018-04-10T01:56:11.881Z,0.00
2018-04-10T01:57:11.802Z,0.00
2018-04-10T01:58:11.781Z,0.00
2018-04-10T01:59:11.899Z,0.00
2018-04-10T02:00:11.751Z,0.00
2018-04-10T02:01:11.750Z,0.00
2018-04-10T02:02:11.724Z,0.00
2018-04-10T02:03:11.709Z,0.00
2018-04-10T02:04:11.693Z,0.00
2018-04-10T02:05:11.682Z,0.00
2018-04-10T02:06:11.667Z,0.00
2018-04-10T02:07:11.650Z,0.00
2018-04-10T02:08:11.635Z,0.00
2018-04-10T02:09:11.620Z,0.00
2018-04-10T02:10:11.604Z,0.00
2018-04-10T02:11:11.590Z,0.00
2018-04-10T02:12:11.580Z,0.00
2018-04-10T02:13:11.569Z,0.00
2018-04-10T02:14:11.549Z,0.00
2018-04-10T02:15:11.635Z,0.00
2018-04-10T02:16:11.519Z,0.00
2018-04-10T02:17:11.503Z,0.00
2018-04-10T02:18:11.491Z,0.00
2018-04-10T02:19:11.471Z,0.00
2018-04-10T02:20:11.459Z,0.00
2018-04-10T02:21:11.443Z,0.00
2018-04-10T02:22:11.429Z,0.00
2018-04-10T02:23:11.426Z,0.00
2018-04-10T02:24:11.398Z,0.00
2018-04-10T02:25:11.386Z,0.00
2018-04-10T02:26:11.373Z,0.00
2018-04-10T02:27:11.353Z,0.00
2018-04-10T02:28:11.340Z,0.00
2018-04-10T02:29:11.329Z,0.00
2018-04-10T02:30:11.311Z,0.00
2018-04-10T02:31:11.293Z,0.00
2018-04-10T02:32:11.281Z,0.00
2018-04-10T02:33:11.268Z,0.00
2018-04-10T02:34:11.254Z,0.00
2018-04-10T02:35:11.239Z,0.00
2018-04-10T02:36:11.220Z,0.00
2018-04-10T02:37:11.207Z,0.00
2018-04-10T02:38:11.194Z,0.00
2018-04-10T02:39:11.313Z,0.00
2018-04-10T02:40:11.164Z,0.00
2018-04-10T02:41:11.147Z,0.00
2018-04-10T02:42:11.192Z,0.00
2018-04-10T02:43:11.118Z,0.00
2018-04-10T02:44:11.104Z,0.00
2018-04-10T02:45:11.087Z,0.00
2018-04-10T02:46:11.074Z,0.00
2018-04-10T02:47:11.056Z,0.00
2018-04-10T02:48:11.042Z,0.00
2018-04-10T02:49:11.027Z,0.00
2018-04-10T02:50:11.012Z,0.00
2018-04-10T02:51:10.997Z,0.00
2018-04-10T02:52:10.982Z,0.00
2018-04-10T02:53:10.967Z,0.00
2018-04-10T02:54:10.955Z,0.00
2018-04-10T02:55:11.061Z,0.00
2018-04-10T02:56:10.941Z,0.00
2018-04-10T02:57:10.906Z,0.00
2018-04-10T02:58:10.918Z,0.00
2018-04-10T02:59:10.874Z,0.00
2018-04-10T03:00:10.866Z,0.00
2018-04-10T03:01:10.848Z,0.00
2018-04-10T03:02:10.840Z,0.00
2018-04-10T03:03:10.860Z,0.00
2018-04-10T03:04:10.806Z,0.00
2018-04-10T03:05:10.788Z,0.00
2018-04-10T03:06:10.776Z,0.00
2018-04-10T03:07:10.755Z,0.00
2018-04-10T03:08:10.747Z,0.00
2018-04-10T03:09:10.727Z,0.00
2018-04-10T03:10:10.713Z,0.00
2018-04-10T03:11:10.695Z,0.00
2018-04-10T03:12:10.685Z,0.00
2018-04-10T03:13:10.666Z,0.00
2018-04-10T03:14:10.653Z,0.00
2018-04-10T03:15:10.633Z,0.00
2018-04-10T03:16:10.618Z,0.00
2018-04-10T03:17:10.606Z,0.00
2018-04-10T03:18:10.592Z,0.00
2018-04-10T03:19:10.770Z,0.00
2018-04-10T03:20:10.560Z,0.00
2018-04-10T03:21:10.544Z,0.00
2018-04-10T03:22:10.606Z,0.00
2018-04-10T03:23:10.515Z,0.00
2018-04-10T03:24:10.502Z,0.00
2018-04-10T03:25:10.483Z,0.00
2018-04-10T03:26:10.467Z,0.00
2018-04-10T03:27:10.456Z,0.00
2018-04-10T03:28:10.443Z,0.00
2018-04-10T03:29:10.422Z,0.00
2018-04-10T03:30:10.408Z,0.00
2018-04-10T03:31:10.392Z,0.00
2018-04-10T03:32:10.552Z,0.00
2018-04-10T03:33:10.374Z,0.00
2018-04-10T03:34:10.344Z,0.00
2018-04-10T03:35:10.366Z,0.00
2018-04-10T03:36:10.315Z,0.00
2018-04-10T03:37:10.302Z,0.00
2018-04-10T03:38:10.284Z,0.00
2018-04-10T03:39:10.278Z,0.00
2018-04-10T03:40:10.254Z,0.00
2018-04-10T03:41:10.247Z,0.00
2018-04-10T03:42:10.223Z,0.00
2018-04-10T03:43:10.210Z,0.00
2018-04-10T03:44:10.193Z,0.00
2018-04-10T03:45:10.175Z,0.00
2018-04-10T03:46:10.161Z,0.00
2018-04-10T03:47:10.145Z,0.00
2018-04-10T03:48:10.180Z,0.00
2018-04-10T03:49:10.116Z,0.00
2018-04-10T03:50:10.119Z,0.00
2018-04-10T03:51:10.179Z,0.00
2018-04-10T03:52:10.075Z,0.00
2018-04-10T03:53:10.050Z,0.00
2018-04-10T03:54:10.068Z,0.00
2018-04-10T03:55:10.022Z,0.00
2018-04-10T03:56:10.004Z,0.00
2018-04-10T03:57:09.989Z,0.00
2018-04-10T03:58:09.974Z,0.00
2018-04-10T03:59:09.958Z,0.00
2018-04-10T04:00:09.939Z,0.00
2018-04-10T04:01:09.927Z,0.00
2018-04-10T04:02:09.937Z,0.00
2018-04-10T04:03:09.898Z,0.00
2018-04-10T04:04:09.879Z,0.00
2018-04-10T04:05:09.866Z,0.00
2018-04-10T04:06:09.866Z,0.00
2018-04-10T04:07:09.880Z,0.00
2018-04-10T04:08:09.821Z,0.00
2018-04-10T04:09:09.802Z,0.00
2018-04-10T04:10:09.849Z,0.00
2018-04-10T04:11:09.773Z,0.00
2018-04-10T04:12:09.757Z,0.00
2018-04-10T04:13:09.738Z,0.00
2018-04-10T04:14:09.728Z,0.00
2018-04-10T04:15:09.709Z,0.00
2018-04-10T04:16:09.705Z,0.00
2018-04-10T04:17:09.683Z,0.00
2018-04-10T04:18:09.666Z,0.00
2018-04-10T04:19:09.649Z,0.00
2018-04-10T04:20:09.632Z,0.00
2018-04-10T04:21:09.615Z,0.00
2018-04-10T04:22:09.611Z,0.00
2018-04-10T04:23:09.592Z,0.00
2018-04-10T04:24:09.571Z,0.00
2018-04-10T04:25:09.556Z,0.00
2018-04-10T04:26:09.545Z,0.00
2018-04-10T04:27:09.520Z,0.00
2018-04-10T04:28:09.510Z,0.00
2018-04-10T04:29:09.489Z,0.00
2018-04-10T04:30:09.473Z,0.00
2018-04-10T04:31:09.616Z,0.00
2018-04-10T04:32:09.479Z,0.00
2018-04-10T04:33:09.428Z,0.00
2018-04-10T04:34:09.416Z,0.00
2018-04-10T04:35:09.396Z,0.00
2018-04-10T04:36:09.386Z,0.00
2018-04-10T04:37:09.365Z,0.00
2018-04-10T04:38:09.353Z,0.00
2018-04-10T04:39:09.334Z,5.63
2018-04-10T04:40:09.316Z,5.63
2018-04-10T04:41:09.302Z,5.63
2018-04-10T04:42:09.288Z,5.63
2018-04-10T04:43:09.271Z,5.63
2018-04-10T04:44:09.256Z,5.63
2018-04-10T04:45:09.238Z,5.63
2018-04-10T04:46:09.225Z,5.63
2018-04-10T04:47:09.206Z,11.25
2018-04-10T04:48:09.192Z,11.25
2018-04-10T04:49:09.176Z,11.25
2018-04-10T04:50:09.265Z,11.25
2018-04-10T04:51:09.144Z,16.88
2018-04-10T04:52:09.131Z,16.88
2018-04-10T04:53:09.114Z,16.88
2018-04-10T04:54:09.100Z,22.50
2018-04-10T04:55:09.083Z,22.50
2018-04-10T04:56:09.065Z,28.13
2018-04-10T04:57:09.051Z,28.13
2018-04-10T04:58:09.037Z,33.75
2018-04-10T04:59:09.025Z,39.38
2018-04-10T05:00:09.003Z,39.38
2018-04-10T05:01:08.990Z,45.00
2018-04-10T05:02:08.971Z,50.63
2018-04-10T05:03:08.963Z,50.63
2018-04-10T05:04:08.940Z,50.63
2018-04-10T05:05:08.924Z,56.25
2018-04-10T05:06:08.909Z,56.25
2018-04-10T05:07:08.892Z,61.88
2018-04-10T05:08:08.882Z,67.50
2018-04-10T05:09:08.878Z,73.13
2018-04-10T05:10:08.849Z,73.13
2018-04-10T05:11:08.839Z,78.75
2018-04-10T05:12:08.815Z,84.38
2018-04-10T05:13:08.798Z,95.63
2018-04-10T05:14:08.785Z,95.63
2018-04-10T05:15:08.777Z,101.25
2018-04-10T05:16:08.751Z,106.88
2018-04-10T05:17:08.744Z,112.50
2018-04-10T05:18:08.722Z,112.50
2018-04-10T05:19:08.704Z,118.13
2018-04-10T05:20:08.691Z,123.75
2018-04-10T05:21:08.672Z,123.75
2018-04-10T05:22:08.658Z,129.38
2018-04-10T05:23:08.642Z,135.00
2018-04-10T05:24:08.629Z,135.00
2018-04-10T05:25:08.617Z,140.63
2018-04-10T05:26:08.597Z,146.25
2018-04-10T05:27:08.581Z,146.25
2018-04-10T05:28:08.570Z,146.25
2018-04-10T05:29:08.549Z,151.88
2018-04-10T05:30:08.552Z,151.88
2018-04-10T05:31:08.535Z,151.88
2018-04-10T05:32:08.506Z,151.88
2018-04-10T05:33:08.544Z,157.50
2018-04-10T05:34:08.477Z,157.50
2018-04-10T05:35:08.462Z,157.50
2018-04-10T05:36:08.440Z,157.50
2018-04-10T05:37:08.434Z,157.50
2018-04-10T05:38:08.410Z,163.13
2018-04-10T05:39:08.395Z,163.13
2018-04-10T05:40:08.384Z,168.75
2018-04-10T05:41:08.366Z,174.38
2018-04-10T05:42:08.348Z,180.00
2018-04-10T05:43:08.337Z,185.63
2018-04-10T05:44:08.318Z,191.25
2018-04-10T05:45:08.305Z,191.25
2018-04-10T05:46:08.290Z,196.88
2018-04-10T05:47:08.286Z,202.50
2018-04-10T05:48:08.256Z,202.50
2018-04-10T05:49:08.259Z,213.75
2018-04-10T05:50:08.227Z,225.00
2018-04-10T05:51:08.217Z,230.63
2018-04-10T05:52:08.250Z,236.25
2018-04-10T05:53:08.201Z,241.88
2018-04-10T05:54:08.166Z,241.88
2018-04-10T05:55:08.154Z,247.50
2018-04-10T05:56:08.138Z,253.13
2018-04-10T05:57:08.128Z,258.75
2018-04-10T05:58:08.106Z,281.25
2018-04-10T05:59:08.099Z,331.88
2018-04-10T06:00:08.080Z,382.50
2018-04-10T06:01:08.073Z,421.88
2018-04-10T06:02:08.047Z,450.00
2018-04-10T06:03:08.035Z,450.00
2018-04-10T06:04:08.017Z,427.50
2018-04-10T06:05:08.002Z,405.00
2018-04-10T06:06:07.989Z,393.75
2018-04-10T06:07:07.972Z,433.13
2018-04-10T06:08:08.015Z,478.13
2018-04-10T06:09:07.947Z,528.75
2018-04-10T06:10:07.932Z,551.25
2018-04-10T06:11:07.915Z,590.63
2018-04-10T06:12:07.902Z,646.88
2018-04-10T06:13:07.896Z,708.75
2018-04-10T06:14:07.883Z,720.00
2018-04-10T06:15:07.861Z,748.13
2018-04-10T06:16:07.912Z,781.88
2018-04-10T06:17:07.839Z,798.75
2018-04-10T06:18:07.820Z,849.38
2018-04-10T06:19:07.808Z,810.00
2018-04-10T06:20:07.795Z,798.75
2018-04-10T06:21:07.780Z,860.63
2018-04-10T06:22:07.766Z,855.00
2018-04-10T06:23:07.752Z,720.00
2018-04-10T06:24:07.748Z,748.13
2018-04-10T06:25:07.731Z,855.00
2018-04-10T06:26:07.717Z,945.00
2018-04-10T06:27:07.718Z,928.13
2018-04-10T06:28:07.693Z,928.13
2018-04-10T06:29:07.683Z,855.00
2018-04-10T06:30:07.671Z,860.63
2018-04-10T06:31:07.654Z,1006.88
2018-04-10T06:32:07.746Z,933.75
2018-04-10T06:33:07.633Z,995.63
2018-04-10T06:34:07.624Z,945.00
2018-04-10T06:35:07.612Z,781.88
2018-04-10T06:36:07.600Z,804.38
2018-04-10T06:37:07.590Z,720.00
2018-04-10T06:38:07.580Z,562.50
2018-04-10T06:39:07.569Z,517.50
2018-04-10T06:40:07.571Z,500.63
2018-04-10T06:41:07.546Z,500.63
2018-04-10T06:42:07.532Z,500.63
2018-04-10T06:43:07.537Z,506.25
2018-04-10T06:44:07.514Z,511.88
2018-04-10T06:45:07.517Z,511.88
2018-04-10T06:46:07.500Z,517.50
2018-04-10T06:47:07.486Z,517.50
2018-04-10T06:48:07.469Z,523.13
2018-04-10T06:49:07.459Z,523.13
2018-04-10T06:50:07.449Z,528.75
2018-04-10T06:51:07.434Z,540.00
2018-04-10T06:52:07.424Z,540.00
2018-04-10T06:53:07.414Z,540.00
2018-04-10T06:54:07.407Z,545.63
2018-04-10T06:55:07.392Z,540.00
2018-04-10T06:56:07.382Z,540.00
2018-04-10T06:57:07.368Z,540.00
2018-04-10T06:58:07.372Z,540.00
2018-04-10T06:59:07.347Z,540.00
2018-04-10T07:00:07.333Z,540.00
2018-04-10T07:01:07.348Z,540.00
2018-04-10T07:02:07.311Z,545.63
2018-04-10T07:03:07.298Z,540.00
2018-04-10T07:04:07.287Z,545.63
2018-04-10T07:05:07.276Z,545.63
2018-04-10T07:06:07.271Z,551.25
2018-04-10T07:07:07.255Z,551.25
2018-04-10T07:08:07.239Z,556.88
2018-04-10T07:09:07.229Z,562.50
2018-04-10T07:10:07.217Z,562.50
2018-04-10T07:11:07.205Z,568.13
2018-04-10T07:12:07.205Z,573.75
2018-04-10T07:13:07.189Z,573.75
2018-04-10T07:14:07.171Z,579.38
2018-04-10T07:15:07.156Z,585.00
2018-04-10T07:16:07.145Z,590.63
2018-04-10T07:17:07.138Z,601.88
2018-04-10T07:18:07.127Z,635.63
2018-04-10T07:19:07.107Z,815.63
2018-04-10T07:20:07.098Z,1057.50
2018-04-10T07:21:07.084Z,1029.38
2018-04-10T07:22:07.127Z,1046.25
2018-04-10T07:23:07.065Z,1198.13
2018-04-10T07:24:07.049Z,1102.50
2018-04-10T07:25:07.036Z,945.00
2018-04-10T07:26:07.030Z,945.00
2018-04-10T07:27:07.016Z,1012.50
2018-04-10T07:28:07.003Z,1198.13
2018-04-10T07:29:06.995Z,1299.38
2018-04-10T07:30:06.984Z,1046.25
2018-04-10T07:31:06.982Z,1119.38
2018-04-10T07:32:06.958Z,1423.13
2018-04-10T07:33:06.962Z,1535.63
2018-04-10T07:34:06.960Z,1530.00
2018-04-10T07:35:07.018Z,1535.63
2018-04-10T07:36:06.927Z,1231.88
2018-04-10T07:37:06.917Z,1423.13
2018-04-10T07:38:06.956Z,1732.50
2018-04-10T07:39:06.889Z,1473.75
2018-04-10T07:40:06.887Z,1074.38
2018-04-10T07:41:06.874Z,1248.75
2018-04-10T07:42:06.862Z,1276.88
2018-04-10T07:43:06.854Z,1068.75
2018-04-10T07:44:06.847Z,990.00
2018-04-10T07:45:06.838Z,1113.75
2018-04-10T07:46:06.844Z,1541.25
2018-04-10T07:47:06.822Z,2053.13
2018-04-10T07:48:06.812Z,1946.25
2018-04-10T07:49:06.808Z,1766.25
2018-04-10T07:50:06.798Z,1805.63
2018-04-10T07:51:06.801Z,1771.88
2018-04-10T07:52:06.789Z,1687.50
2018-04-10T07:53:06.772Z,1434.38
2018-04-10T07:54:06.776Z,1350.00
2018-04-10T07:55:06.760Z,1867.50
2018-04-10T07:56:06.750Z,1518.75
2018-04-10T07:57:06.748Z,1074.38
2018-04-10T07:58:06.740Z,838.13
2018-04-10T07:59:06.740Z,900.00
2018-04-10T08:00:06.728Z,1158.75
2018-04-10T08:01:06.724Z,1316.25
2018-04-10T08:02:06.713Z,1479.38
2018-04-10T08:03:06.704Z,1800.00
2018-04-10T08:04:06.730Z,1732.50
2018-04-10T08:05:06.699Z,1800.00
2018-04-10T08:06:06.684Z,1867.50
2018-04-10T08:07:06.682Z,2131.88
2018-04-10T08:08:06.679Z,2019.38
2018-04-10T08:09:06.665Z,2171.25
2018-04-10T08:10:06.663Z,2221.88
2018-04-10T08:11:06.655Z,1771.88
2018-04-10T08:12:06.651Z,1822.50
2018-04-10T08:13:06.644Z,2424.38
2018-04-10T08:14:06.639Z,2266.88
2018-04-10T08:15:06.635Z,1546.88
2018-04-10T08:16:06.632Z,1350.00
2018-04-10T08:17:06.624Z,1580.63
2018-04-10T08:18:06.622Z,1901.25
2018-04-10T08:19:06.619Z,1659.38
2018-04-10T08:20:06.623Z,1653.75
2018-04-10T08:21:06.617Z,1586.25
2018-04-10T08:22:06.600Z,1676.25
2018-04-10T08:23:06.598Z,2160.00
2018-04-10T08:24:06.593Z,2503.13
2018-04-10T08:25:06.691Z,2311.88
2018-04-10T08:26:06.584Z,2199.38
2018-04-10T08:27:06.577Z,2430.00
2018-04-10T08:28:06.574Z,2221.88
2018-04-10T08:29:06.570Z,1884.38
2018-04-10T08:30:06.570Z,1833.75
2018-04-10T08:31:06.571Z,1895.63
2018-04-10T08:32:06.563Z,1912.50
2018-04-10T08:33:06.564Z,1749.38
2018-04-10T08:34:06.555Z,2047.50
2018-04-10T08:35:06.614Z,2075.63
2018-04-10T08:36:06.555Z,1698.75
2018-04-10T08:37:06.548Z,1766.25
2018-04-10T08:38:06.548Z,1366.88
2018-04-10T08:39:06.541Z,1620.00
2018-04-10T08:40:06.541Z,1563.75
2018-04-10T08:41:06.539Z,1434.38
2018-04-10T08:42:06.534Z,1479.38
2018-04-10T08:43:06.527Z,1445.63
2018-04-10T08:44:06.532Z,1541.25
2018-04-10T08:45:06.539Z,1625.63
2018-04-10T08:46:06.526Z,2025.00
2018-04-10T08:47:06.526Z,2435.63
2018-04-10T08:48:06.532Z,2131.88
2018-04-10T08:49:06.506Z,2013.75
2018-04-10T08:50:06.513Z,1653.75
2018-04-10T08:51:06.508Z,1513.13
2018-04-10T08:52:06.504Z,1186.88
2018-04-10T08:53:06.501Z,1271.25
2018-04-10T08:54:06.501Z,1468.13
2018-04-10T08:55:06.500Z,1558.13
2018-04-10T08:56:06.487Z,1575.00
2018-04-10T08:57:06.484Z,1648.13
2018-04-10T08:58:06.482Z,1923.75
2018-04-10T08:59:06.482Z,1693.13
2018-04-10T09:00:06.474Z,1839.38
2018-04-10T09:01:06.575Z,2131.88
2018-04-10T09:02:06.490Z,2508.75
2018-04-10T09:03:06.476Z,2463.75
2018-04-10T09:04:06.467Z,2362.50
2018-04-10T09:05:06.465Z,2469.38
2018-04-10T09:06:06.459Z,2570.63
2018-04-10T09:07:06.454Z,2418.75
2018-04-10T09:08:06.451Z,2266.88
2018-04-10T09:09:06.452Z,2385.00
2018-04-10T09:10:06.446Z,2542.50
2018-04-10T09:11:06.460Z,2610.00
2018-04-10T09:12:06.442Z,2598.75
2018-04-10T09:13:06.441Z,2818.13
2018-04-10T09:14:06.458Z,2981.25
2018-04-10T09:15:06.437Z,2846.25
2018-04-10T09:16:06.447Z,2728.13
2018-04-10T09:17:06.438Z,2795.63
2018-04-10T09:18:06.434Z,2761.88
2018-04-10T09:19:06.513Z,2401.88
2018-04-10T09:20:06.452Z,2278.13
2018-04-10T09:21:06.432Z,2491.88
2018-04-10T09:22:06.485Z,2351.25
2018-04-10T09:23:06.431Z,2632.50
2018-04-10T09:24:06.429Z,3172.50
2018-04-10T09:25:06.434Z,3307.50
2018-04-10T09:26:06.431Z,3386.25
2018-04-10T09:27:06.433Z,3189.38
2018-04-10T09:28:06.431Z,2700.00
2018-04-10T09:29:06.491Z,3015.00
2018-04-10T09:30:06.435Z,2694.38
2018-04-10T09:31:06.440Z,2716.88
2018-04-10T09:32:06.579Z,2576.25
2018-04-10T09:33:06.441Z,2733.75
2018-04-10T09:34:06.439Z,2880.00
2018-04-10T09:35:06.443Z,2655.00
2018-04-10T09:36:06.440Z,3082.50
2018-04-10T09:37:06.442Z,2992.50
2018-04-10T09:38:06.442Z,2767.50
2018-04-10T09:39:06.448Z,3166.88
2018-04-10T09:40:06.447Z,3200.63
2018-04-10T09:41:06.457Z,3240.00
2018-04-10T09:42:06.459Z,3116.25
2018-04-10T09:43:06.452Z,3285.00
2018-04-10T09:44:06.460Z,3391.88
2018-04-10T09:45:06.460Z,3391.88
2018-04-10T09:46:06.467Z,3352.50
2018-04-10T09:47:06.466Z,3330.00
2018-04-10T09:48:06.469Z,3256.88
2018-04-10T09:49:06.495Z,3240.00
2018-04-10T09:50:06.471Z,3127.50
2018-04-10T09:51:06.474Z,3110.63
2018-04-10T09:52:06.500Z,3352.50
2018-04-10T09:53:06.481Z,3414.38
2018-04-10T09:54:06.491Z,3425.63
2018-04-10T09:55:06.548Z,3408.75
2018-04-10T09:56:06.502Z,3369.38
2018-04-10T09:57:06.494Z,3290.63
2018-04-10T09:58:06.500Z,3341.25
2018-04-10T09:59:06.497Z,3391.88
2018-04-10T10:00:06.501Z,3436.88
2018-04-10T10:01:06.508Z,3245.63
2018-04-10T10:02:06.516Z,3206.25
2018-04-10T10:03:06.517Z,3313.13
2018-04-10T10:04:06.519Z,3166.88
2018-04-10T10:05:06.642Z,3172.50
2018-04-10T10:06:06.526Z,3318.75
2018-04-10T10:07:06.528Z,3307.50
2018-04-10T10:08:06.534Z,2986.88
2018-04-10T10:09:06.535Z,2868.75
2018-04-10T10:10:06.538Z,2970.00
2018-04-10T10:11:06.557Z,2970.00
2018-04-10T10:12:06.551Z,2981.25
2018-04-10T10:13:06.555Z,3099.38
2018-04-10T10:14:06.579Z,3105.00
2018-04-10T10:15:06.565Z,3251.25
2018-04-10T10:16:06.575Z,3262.50
2018-04-10T10:17:06.575Z,3206.25
2018-04-10T10:18:06.584Z,3183.75
2018-04-10T10:19:06.585Z,3397.50
2018-04-10T10:20:06.590Z,2638.13
2018-04-10T10:21:06.595Z,3110.63
2018-04-10T10:22:06.597Z,2739.38
2018-04-10T10:23:06.691Z,2829.38
2018-04-10T10:24:06.606Z,2503.13
2018-04-10T10:25:06.617Z,2548.13
2018-04-10T10:26:06.615Z,2638.13
2018-04-10T10:27:06.625Z,2812.50
2018-04-10T10:28:06.628Z,2756.25
2018-04-10T10:29:06.628Z,2705.63
2018-04-10T10:30:06.633Z,2902.50
2018-04-10T10:31:06.641Z,2981.25
2018-04-10T10:32:06.642Z,3020.63
2018-04-10T10:33:06.657Z,2846.25
2018-04-10T10:34:06.653Z,2666.25
2018-04-10T10:35:06.652Z,3065.63
2018-04-10T10:36:06.662Z,2756.25
2018-04-10T10:37:06.661Z,3015.00
2018-04-10T10:38:06.664Z,2739.38
2018-04-10T10:39:06.671Z,2621.25
2018-04-10T10:40:06.672Z,2503.13
2018-04-10T10:41:06.676Z,2885.63
2018-04-10T10:42:06.682Z,2452.50
2018-04-10T10:43:06.683Z,2930.63
2018-04-10T10:44:06.686Z,3020.63
2018-04-10T10:45:06.711Z,3088.13
2018-04-10T10:46:06.699Z,3228.75
2018-04-10T10:47:06.707Z,3116.25
2018-04-10T10:48:06.709Z,3060.00
2018-04-10T10:49:06.705Z,2193.75
2018-04-10T10:50:06.713Z,2514.38
2018-04-10T10:51:06.713Z,2902.50
2018-04-10T10:52:06.720Z,3043.13
2018-04-10T10:53:06.721Z,3020.63
2018-04-10T10:54:06.725Z,2975.63
2018-04-10T10:55:06.739Z,2767.50
2018-04-10T10:56:06.739Z,2497.50
2018-04-10T10:57:06.737Z,2733.75
2018-04-10T10:58:06.756Z,3009.38
2018-04-10T10:59:06.743Z,3065.63
2018-04-10T11:00:06.751Z,2947.50
2018-04-10T11:01:06.777Z,3043.13
2018-04-10T11:02:06.754Z,3093.75
2018-04-10T11:03:06.760Z,3099.38
2018-04-10T11:04:06.763Z,3178.13
2018-04-10T11:05:06.769Z,3048.75
2018-04-10T11:06:06.894Z,3026.25
2018-04-10T11:07:06.775Z,3043.13
2018-04-10T11:08:06.787Z,2896.88
2018-04-10T11:09:06.785Z,2857.50
2018-04-10T11:10:06.789Z,2795.63
2018-04-10T11:11:06.792Z,3037.50
2018-04-10T11:12:06.798Z,2986.88
2018-04-10T11:13:06.798Z,2705.63
2018-04-10T11:14:06.804Z,2266.88
2018-04-10T11:15:06.808Z,2581.88
2018-04-10T11:16:06.819Z,2863.13
2018-04-10T11:17:06.813Z,2548.13
2018-04-10T11:18:06.820Z,2750.63
2018-04-10T11:19:06.826Z,2998.13
2018-04-10T11:20:06.832Z,2328.75
2018-04-10T11:21:06.832Z,2497.50
2018-04-10T11:22:06.837Z,2981.25
2018-04-10T11:23:06.836Z,2497.50
2018-04-10T11:24:06.889Z,2671.88
2018-04-10T11:25:06.858Z,2536.88
2018-04-10T11:26:06.861Z,2649.38
2018-04-10T11:27:06.852Z,2801.25
2018-04-10T11:28:06.875Z,2660.63
2018-04-10T11:29:06.862Z,2469.38
2018-04-10T11:30:06.868Z,2452.50
2018-04-10T11:31:06.867Z,2508.75
2018-04-10T11:32:06.869Z,2373.75
2018-04-10T11:33:06.885Z,2491.88
2018-04-10T11:34:06.877Z,2722.50
2018-04-10T11:35:06.879Z,2677.50
2018-04-10T11:36:06.884Z,2643.75
2018-04-10T11:37:06.888Z,2621.25
2018-04-10T11:38:06.890Z,2559.38
2018-04-10T11:39:06.898Z,2587.50
2018-04-10T11:40:06.906Z,2514.38
2018-04-10T11:41:06.950Z,2491.88
2018-04-10T11:42:06.902Z,2385.00
2018-04-10T11:43:06.926Z,2407.50
2018-04-10T11:44:06.909Z,2424.38
2018-04-10T11:45:06.918Z,2283.75
2018-04-10T11:46:06.922Z,2266.88
2018-04-10T11:47:06.916Z,2295.00
2018-04-10T11:48:06.919Z,2311.88
2018-04-10T11:49:06.919Z,2193.75
2018-04-10T11:50:06.929Z,1608.75
2018-04-10T11:51:06.935Z,967.50
2018-04-10T11:52:06.927Z,860.63
2018-04-10T11:53:06.929Z,826.88
2018-04-10T11:54:06.935Z,810.00
2018-04-10T11:55:06.925Z,798.75
2018-04-10T11:56:06.931Z,776.25
2018-04-10T11:57:06.929Z,748.13
2018-04-10T11:58:06.933Z,725.63
2018-04-10T11:59:06.932Z,725.63
2018-04-10T12:00:06.938Z,725.63
2018-04-10T12:01:06.935Z,708.75
2018-04-10T12:02:06.930Z,691.88
2018-04-10T12:03:06.928Z,652.50
2018-04-10T12:04:07.012Z,663.75
2018-04-10T12:05:06.927Z,669.38
2018-04-10T12:06:06.933Z,663.75
2018-04-10T12:07:06.924Z,663.75
2018-04-10T12:08:06.929Z,652.50
2018-04-10T12:09:06.924Z,641.25
2018-04-10T12:10:06.918Z,641.25
2018-04-10T12:11:06.915Z,641.25
2018-04-10T12:12:06.918Z,635.63
2018-04-10T12:13:06.915Z,630.00
2018-04-10T12:14:06.907Z,624.38
2018-04-10T12:15:06.906Z,624.38
2018-04-10T12:16:06.943Z,618.75
2018-04-10T12:17:07.011Z,607.50
2018-04-10T12:18:06.903Z,585.00
2018-04-10T12:19:06.903Z,568.13
2018-04-10T12:20:06.947Z,573.75
2018-04-10T12:21:06.883Z,562.50
2018-04-10T12:22:06.884Z,573.75
2018-04-10T12:23:06.879Z,573.75
2018-04-10T12:24:06.872Z,585.00
2018-04-10T12:25:06.871Z,590.63
2018-04-10T12:26:06.861Z,573.75
2018-04-10T12:27:06.859Z,562.50
2018-04-10T12:28:06.856Z,556.88
2018-04-10T12:29:06.843Z,556.88
2018-04-10T12:30:06.836Z,556.88
2018-04-10T12:31:06.833Z,551.25
2018-04-10T12:32:06.824Z,551.25
2018-04-10T12:33:06.828Z,540.00
2018-04-10T12:34:06.818Z,545.63
2018-04-10T12:35:06.810Z,545.63
2018-04-10T12:36:06.800Z,540.00
2018-04-10T12:37:06.816Z,517.50
2018-04-10T12:38:06.862Z,534.38